Geneva, GA (31810)

7:07 AM EDT on July 29, 2014 (GMT -0400)
Foxfire (KGACOLUM7) Elev 436 ft | 32.54 °N, 84.91 °W | Change Station

Current weather conditions updated 6 minutes ago

Clear
Clear
64.7 °F
Feels Like 64.7 °F
N
0.0
Wind Variable Wind from ENE
Gusts 0.0 mph

Today is forecast to be Cooler than yesterday.

Today
High -- | Low -- °F
--% Chance of Precip.
Yesterday
High -- | Low -- °F
Precip. -- in
6:50 AM 8:38 PM
Waxing Crescent, 6% visible
Pressure 29.94 in
Visibility 10.0 miles
Clouds Clear
Dew Point 63 °F
Humidity 94%
Rainfall 0.00 in
Snow Depth Not available.
UV 0 out of 12
Pollen 5.50 out of 12
Air Quality Not available.
Flu Activity Not available.
METAR KCSG 291051Z AUTO 35003KT 10SM CLR 21/17 A2996 RMK AO2 SLP139 T02060167

More Conditions Fewer Conditions

Pressure 29.94 in
Visibility 10.0 miles
Clouds Clear
Dew Point 63 °F
Humidity 94%
Rainfall 0.00 in
Snow Depth Not available.
UV 0 out of 12
Pollen 5.50 out of 12
Air Quality Not available.
Flu Activity Not available.
METAR KCSG 291051Z AUTO 35003KT 10SM CLR 21/17 A2996 RMK AO2 SLP139 T02060167

More Conditions Fewer Conditions

10-Day Weather Forecast

Almanac

Astronomy

Jul. 29, 2014 Rise Set
Actual Time 6:50 AM EDT 8:38 PM EDT
Civil Twilight 6:23 AM EDT 9:05 PM EDT
Nautical Twilight 5:50 AM EDT 9:38 PM EDT
Astronomical Twilight 5:16 AM EDT 10:12 PM EDT
Moon 9:14 AM EDT 10:03 PM EDT
Length of Visible Light 14h 42m
Length of Day
13h 48m
Tomorrow will be 1m 25s shorter.
Waxing Crescent, 6% of the Moon is Illuminated
Today
Waxing Crescent
Aug 3
First Quarter
Aug 10
Full
Aug 17
Last Quarter
Aug 25
New

Today's Extremes

State Highs State Lows

Community

WunderPhotos

Upload Photos

1,738,685 photos uploaded!

Nearby

Snow Depth

Station Depth Elevation
No new snow has been reported.

Earthquake Activity

City Distance Mag. Time & Date
No recent earthquake activity has been reported nearby.
Minimum magnitude displayed is 2.5.

Coastal Water Temperatures

Place Temperature
No Stations Reporting

Nearby Weather Stations

Station Location Temp. Dew Point Humidity Wind Precip. Elev Updated Type
Foxfire, Columbus, GA 64.7 °F 63 °F 94% ENE  at  0.0 mph 0.00 in / hr 436 ft 7:00 AM EDT Normal
SE Meriwether WX, Manchester, GA 64.5 °F 61 °F 89% North  at  0.0 mph 0.00 in / hr 899 ft 7:06 AM EDT Rapid Fire
Lincoln Hills, Columbus, GA 66.0 °F 63 °F 91% NE  at  1.1 mph - / hr 433 ft 6:59 AM EDT Normal
Fortson GA, Columbus, GA 63.4 °F 59 °F 85% North  at  0.0 mph 0.00 in / hr 528 ft 7:07 AM EDT Rapid Fire
Lakewood Heights, Phenix City, AL 63.1 °F 62 °F 97% West  at  0.0 mph 0.00 in / hr 394 ft 6:06 AM CDT Normal

Show More Stations Show Fewer Stations